sensor_id;sensor_type;location;lat;lon;timestamp;pressure;altitude;pressure_sealevel;temperature;humidity
57232;BME280;43488;46.934;8.276;2023-12-20T00:02:21;96796.31;;;3.11;100.00
57232;BME280;43488;46.934;8.276;2023-12-20T00:05:29;96794.06;;;3.17;100.00
57232;BME280;43488;46.934;8.276;2023-12-20T00:08:39;96768.84;;;3.17;100.00
57232;BME280;43488;46.934;8.276;2023-12-20T00:11:47;96773.25;;;3.17;100.00
57232;BME280;43488;46.934;8.276;2023-12-20T00:14:54;96776.16;;;3.13;100.00
57232;BME280;43488;46.934;8.276;2023-12-20T00:18:03;96771.94;;;3.12;100.00
57232;BME280;43488;46.934;8.276;2023-12-20T00:21:10;96749.78;;;3.08;100.00
57232;BME280;43488;46.934;8.276;2023-12-20T00:24:18;96745.06;;;3.04;100.00
57232;BME280;43488;46.934;8.276;2023-12-20T00:27:26;96739.84;;;3.04;100.00
57232;BME280;43488;46.934;8.276;2023-12-20T00:30:33;96727.66;;;3.04;100.00
57232;BME280;43488;46.934;8.276;2023-12-20T00:33:41;96728.81;;;3.10;100.00
57232;BME280;43488;46.934;8.276;2023-12-20T00:36:51;96735.66;;;3.11;100.00
57232;BME280;43488;46.934;8.276;2023-12-20T00:39:58;96726.69;;;3.05;100.00
57232;BME280;43488;46.934;8.276;2023-12-20T00:43:06;96715.78;;;3.02;100.00
57232;BME280;43488;46.934;8.276;2023-12-20T00:46:14;96714.13;;;2.93;100.00
57232;BME280;43488;46.934;8.276;2023-12-20T00:49:21;96716.25;;;2.97;100.00
57232;BME280;43488;46.934;8.276;2023-12-20T00:52:29;96721.28;;;2.99;100.00
57232;BME280;43488;46.934;8.276;2023-12-20T00:55:37;96701.81;;;3.03;100.00
57232;BME280;43488;46.934;8.276;2023-12-20T00:58:44;96697.38;;;2.95;100.00
57232;BME280;43488;46.934;8.276;2023-12-20T01:01:52;96690.88;;;2.99;100.00
57232;BME280;43488;46.934;8.276;2023-12-20T01:05:00;96679.38;;;3.02;100.00
57232;BME280;43488;46.934;8.276;2023-12-20T01:08:07;96695.78;;;3.02;100.00
57232;BME280;43488;46.934;8.276;2023-12-20T01:11:15;96694.28;;;3.00;100.00
57232;BME280;43488;46.934;8.276;2023-12-20T01:14:23;96700.84;;;3.04;100.00
57232;BME280;43488;46.934;8.276;2023-12-20T01:17:30;96713.47;;;2.99;100.00
57232;BME280;43488;46.934;8.276;2023-12-20T01:20:38;96732.22;;;3.10;100.00
57232;BME280;43488;46.934;8.276;2023-12-20T01:23:46;96725.63;;;3.24;100.00
57232;BME280;43488;46.934;8.276;2023-12-20T01:26:53;96727.25;;;3.25;100.00
57232;BME280;43488;46.934;8.276;2023-12-20T01:30:01;96736.91;;;3.33;100.00
57232;BME280;43488;46.934;8.276;2023-12-20T01:33:09;96743.41;;;3.37;100.00
57232;BME280;43488;46.934;8.276;2023-12-20T01:36:16;96745.22;;;3.45;100.00
57232;BME280;43488;46.934;8.276;2023-12-20T01:39:24;96751.56;;;3.42;100.00
57232;BME280;43488;46.934;8.276;2023-12-20T01:42:32;96774.50;;;3.47;100.00
57232;BME280;43488;46.934;8.276;2023-12-20T01:45:40;96781.84;;;3.43;100.00
57232;BME280;43488;46.934;8.276;2023-12-20T01:48:48;96797.59;;;3.41;100.00
57232;BME280;43488;46.934;8.276;2023-12-20T01:51:56;96799.69;;;3.38;100.00
57232;BME280;43488;46.934;8.276;2023-12-20T01:55:05;96807.00;;;3.34;100.00
57232;BME280;43488;46.934;8.276;2023-12-20T01:58:20;96805.88;;;3.37;100.00
57232;BME280;43488;46.934;8.276;2023-12-20T02:01:28;96809.16;;;3.39;100.00
57232;BME280;43488;46.934;8.276;2023-12-20T02:04:36;96805.25;;;3.43;100.00
57232;BME280;43488;46.934;8.276;2023-12-20T02:07:44;96798.09;;;3.45;100.00
57232;BME280;43488;46.934;8.276;2023-12-20T02:10:52;96792.09;;;3.45;100.00
57232;BME280;43488;46.934;8.276;2023-12-20T02:14:00;96794.41;;;3.48;100.00
57232;BME280;43488;46.934;8.276;2023-12-20T02:17:07;96792.91;;;3.45;100.00
57232;BME280;43488;46.934;8.276;2023-12-20T02:20:15;96780.84;;;3.44;100.00
57232;BME280;43488;46.934;8.276;2023-12-20T02:23:23;96770.59;;;3.42;100.00
57232;BME280;43488;46.934;8.276;2023-12-20T02:26:32;96759.22;;;3.43;100.00
57232;BME280;43488;46.934;8.276;2023-12-20T02:29:41;96764.44;;;3.43;100.00
57232;BME280;43488;46.934;8.276;2023-12-20T02:32:49;96745.56;;;3.41;100.00
57232;BME280;43488;46.934;8.276;2023-12-20T02:35:57;96748.00;;;3.43;100.00
57232;BME280;43488;46.934;8.276;2023-12-20T02:39:05;96731.72;;;3.41;100.00
57232;BME280;43488;46.934;8.276;2023-12-20T02:42:12;96726.00;;;3.37;100.00
57232;BME280;43488;46.934;8.276;2023-12-20T02:45:20;96721.78;;;3.36;100.00
57232;BME280;43488;46.934;8.276;2023-12-20T02:48:28;96724.38;;;3.36;100.00
57232;BME280;43488;46.934;8.276;2023-12-20T02:51:35;96726.97;;;3.36;100.00
57232;BME280;43488;46.934;8.276;2023-12-20T02:54:46;96732.50;;;3.33;100.00
57232;BME280;43488;46.934;8.276;2023-12-20T02:57:53;96721.44;;;3.31;100.00
57232;BME280;43488;46.934;8.276;2023-12-20T03:01:01;96730.34;;;3.29;100.00
57232;BME280;43488;46.934;8.276;2023-12-20T03:04:09;96736.41;;;3.29;100.00
57232;BME280;43488;46.934;8.276;2023-12-20T03:07:16;96734.47;;;3.31;100.00
57232;BME280;43488;46.934;8.276;2023-12-20T03:10:24;96735.22;;;3.24;100.00
57232;BME280;43488;46.934;8.276;2023-12-20T03:13:32;96737.66;;;3.25;100.00
57232;BME280;43488;46.934;8.276;2023-12-20T03:16:39;96745.00;;;3.22;100.00
57232;BME280;43488;46.934;8.276;2023-12-20T03:19:47;96756.81;;;3.16;100.00
57232;BME280;43488;46.934;8.276;2023-12-20T03:22:55;96759.09;;;3.19;100.00
57232;BME280;43488;46.934;8.276;2023-12-20T03:26:02;96752.78;;;3.22;100.00
57232;BME280;43488;46.934;8.276;2023-12-20T03:29:10;96766.78;;;3.21;100.00
57232;BME280;43488;46.934;8.276;2023-12-20T03:32:18;96770.69;;;3.25;100.00
57232;BME280;43488;46.934;8.276;2023-12-20T03:35:25;96772.31;;;3.26;100.00
57232;BME280;43488;46.934;8.276;2023-12-20T03:38:33;96773.13;;;3.26;100.00
57232;BME280;43488;46.934;8.276;2023-12-20T03:41:41;96782.41;;;3.29;100.00
57232;BME280;43488;46.934;8.276;2023-12-20T03:44:49;96795.78;;;3.34;100.00
57232;BME280;43488;46.934;8.276;2023-12-20T03:47:56;96777.41;;;3.35;100.00
57232;BME280;43488;46.934;8.276;2023-12-20T03:51:04;96778.53;;;3.33;100.00
57232;BME280;43488;46.934;8.276;2023-12-20T03:54:12;96779.78;;;3.29;100.00
57232;BME280;43488;46.934;8.276;2023-12-20T03:57:19;96771.53;;;3.33;100.00
57232;BME280;43488;46.934;8.276;2023-12-20T04:00:27;96767.63;;;3.37;100.00
57232;BME280;43488;46.934;8.276;2023-12-20T04:03:35;96768.31;;;3.39;100.00
57232;BME280;43488;46.934;8.276;2023-12-20T04:06:42;96760.03;;;3.44;100.00
57232;BME280;43488;46.934;8.276;2023-12-20T04:09:50;96763.78;;;3.41;100.00
57232;BME280;43488;46.934;8.276;2023-12-20T04:12:58;96753.84;;;3.45;100.00
57232;BME280;43488;46.934;8.276;2023-12-20T04:16:06;96760.84;;;3.45;100.00
57232;BME280;43488;46.934;8.276;2023-12-20T04:19:14;96756.16;;;3.48;100.00
57232;BME280;43488;46.934;8.276;2023-12-20T04:22:21;96738.41;;;3.43;100.00
57232;BME280;43488;46.934;8.276;2023-12-20T04:25:29;96746.38;;;3.42;100.00
57232;BME280;43488;46.934;8.276;2023-12-20T04:28:37;96747.84;;;3.45;100.00
57232;BME280;43488;46.934;8.276;2023-12-20T04:31:44;96737.13;;;3.48;100.00
57232;BME280;43488;46.934;8.276;2023-12-20T04:34:52;96755.03;;;3.51;100.00
57232;BME280;43488;46.934;8.276;2023-12-20T04:38:00;96771.28;;;3.53;100.00
57232;BME280;43488;46.934;8.276;2023-12-20T04:41:07;96778.13;;;3.54;100.00
57232;BME280;43488;46.934;8.276;2023-12-20T04:44:15;96779.59;;;3.56;100.00
57232;BME280;43488;46.934;8.276;2023-12-20T04:47:23;96786.75;;;3.54;100.00
57232;BME280;43488;46.934;8.276;2023-12-20T04:50:31;96794.41;;;3.56;100.00
57232;BME280;43488;46.934;8.276;2023-12-20T04:53:38;96794.28;;;3.57;100.00
57232;BME280;43488;46.934;8.276;2023-12-20T04:56:46;96797.97;;;3.55;100.00
57232;BME280;43488;46.934;8.276;2023-12-20T04:59:54;96806.31;;;3.58;100.00
57232;BME280;43488;46.934;8.276;2023-12-20T05:03:01;96822.69;;;3.51;100.00
57232;BME280;43488;46.934;8.276;2023-12-20T05:06:10;96821.25;;;3.56;100.00
57232;BME280;43488;46.934;8.276;2023-12-20T05:09:18;96825.31;;;3.51;100.00
57232;BME280;43488;46.934;8.276;2023-12-20T05:12:25;96828.72;;;3.51;100.00
57232;BME280;43488;46.934;8.276;2023-12-20T05:15:33;96836.88;;;3.56;100.00
57232;BME280;43488;46.934;8.276;2023-12-20T05:18:41;96842.59;;;3.60;100.00
57232;BME280;43488;46.934;8.276;2023-12-20T05:21:48;96844.22;;;3.61;100.00
57232;BME280;43488;46.934;8.276;2023-12-20T05:24:57;96856.94;;;3.64;100.00
57232;BME280;43488;46.934;8.276;2023-12-20T05:28:04;96854.00;;;3.59;100.00
57232;BME280;43488;46.934;8.276;2023-12-20T05:31:12;96856.28;;;3.62;100.00
57232;BME280;43488;46.934;8.276;2023-12-20T05:34:20;96867.34;;;3.64;100.00
57232;BME280;43488;46.934;8.276;2023-12-20T05:37:28;96871.06;;;3.61;100.00
57232;BME280;43488;46.934;8.276;2023-12-20T05:40:36;96882.31;;;3.62;100.00
57232;BME280;43488;46.934;8.276;2023-12-20T05:43:44;96880.53;;;3.62;100.00
57232;BME280;43488;46.934;8.276;2023-12-20T05:46:52;96874.03;;;3.66;100.00
57232;BME280;43488;46.934;8.276;2023-12-20T05:49:59;96882.34;;;3.70;100.00
57232;BME280;43488;46.934;8.276;2023-12-20T05:53:07;96883.97;;;3.71;100.00
57232;BME280;43488;46.934;8.276;2023-12-20T05:56:15;96890.31;;;3.68;100.00
57232;BME280;43488;46.934;8.276;2023-12-20T05:59:23;96886.75;;;3.69;100.00
57232;BME280;43488;46.934;8.276;2023-12-20T06:02:31;96899.75;;;3.69;100.00
57232;BME280;43488;46.934;8.276;2023-12-20T06:05:39;96898.94;;;3.69;100.00
57232;BME280;43488;46.934;8.276;2023-12-20T06:08:46;96902.22;;;3.71;100.00
57232;BME280;43488;46.934;8.276;2023-12-20T06:11:54;96900.59;;;3.70;100.00
57232;BME280;43488;46.934;8.276;2023-12-20T06:15:02;96909.38;;;3.69;100.00
57232;BME280;43488;46.934;8.276;2023-12-20T06:18:10;96916.19;;;3.70;100.00
57232;BME280;43488;46.934;8.276;2023-12-20T06:21:18;96925.66;;;3.71;100.00
57232;BME280;43488;46.934;8.276;2023-12-20T06:24:27;96929.06;;;3.71;100.00
57232;BME280;43488;46.934;8.276;2023-12-20T06:27:35;96915.38;;;3.69;100.00
57232;BME280;43488;46.934;8.276;2023-12-20T06:30:43;96938.16;;;3.67;100.00
57232;BME280;43488;46.934;8.276;2023-12-20T06:33:51;96920.09;;;3.66;100.00
57232;BME280;43488;46.934;8.276;2023-12-20T06:37:04;96905.78;;;3.70;100.00
57232;BME280;43488;46.934;8.276;2023-12-20T06:40:12;96904.97;;;3.69;100.00
57232;BME280;43488;46.934;8.276;2023-12-20T06:43:20;96909.22;;;3.70;100.00
57232;BME280;43488;46.934;8.276;2023-12-20T06:46:28;96911.81;;;3.70;100.00
57232;BME280;43488;46.934;8.276;2023-12-20T06:49:35;96907.41;;;3.71;100.00
57232;BME280;43488;46.934;8.276;2023-12-20T06:52:43;96908.41;;;3.70;100.00
57232;BME280;43488;46.934;8.276;2023-12-20T06:55:51;96915.22;;;3.71;100.00
57232;BME280;43488;46.934;8.276;2023-12-20T06:58:58;96923.75;;;3.81;100.00
57232;BME280;43488;46.934;8.276;2023-12-20T07:02:06;96934.00;;;3.83;100.00
57232;BME280;43488;46.934;8.276;2023-12-20T07:05:18;96935.28;;;3.79;100.00
57232;BME280;43488;46.934;8.276;2023-12-20T07:08:27;96941.31;;;3.79;100.00
57232;BME280;43488;46.934;8.276;2023-12-20T07:11:35;96931.88;;;3.78;100.00
57232;BME280;43488;46.934;8.276;2023-12-20T07:14:42;96920.81;;;3.76;100.00
57232;BME280;43488;46.934;8.276;2023-12-20T07:17:50;96910.69;;;3.73;100.00
57232;BME280;43488;46.934;8.276;2023-12-20T07:20:58;96927.81;;;3.76;100.00
57232;BME280;43488;46.934;8.276;2023-12-20T07:24:06;96944.25;;;3.76;100.00
57232;BME280;43488;46.934;8.276;2023-12-20T07:27:13;96941.47;;;3.78;100.00
57232;BME280;43488;46.934;8.276;2023-12-20T07:30:21;96944.75;;;3.80;100.00
57232;BME280;43488;46.934;8.276;2023-12-20T07:33:29;96945.22;;;3.83;100.00
57232;BME280;43488;46.934;8.276;2023-12-20T07:36:37;96949.19;;;3.87;100.00
57232;BME280;43488;46.934;8.276;2023-12-20T07:39:45;96952.44;;;3.89;100.00
57232;BME280;43488;46.934;8.276;2023-12-20T07:42:52;96950.81;;;3.88;100.00
57232;BME280;43488;46.934;8.276;2023-12-20T07:46:05;96958.94;;;3.85;100.00
57232;BME280;43488;46.934;8.276;2023-12-20T07:49:13;96957.16;;;3.86;100.00
57232;BME280;43488;46.934;8.276;2023-12-20T07:52:21;96960.22;;;3.81;100.00
57232;BME280;43488;46.934;8.276;2023-12-20T07:55:30;96949.63;;;3.83;100.00
57232;BME280;43488;46.934;8.276;2023-12-20T07:58:38;96958.94;;;3.85;100.00
57232;BME280;43488;46.934;8.276;2023-12-20T08:01:46;96968.88;;;3.90;100.00
57232;BME280;43488;46.934;8.276;2023-12-20T08:04:53;96964.50;;;3.90;100.00
57232;BME280;43488;46.934;8.276;2023-12-20T08:08:01;96963.84;;;3.88;100.00
57232;BME280;43488;46.934;8.276;2023-12-20T08:11:09;96973.44;;;3.88;100.00
57232;BME280;43488;46.934;8.276;2023-12-20T08:14:16;96984.84;;;3.87;100.00
57232;BME280;43488;46.934;8.276;2023-12-20T08:17:24;96991.03;;;3.86;100.00
57232;BME280;43488;46.934;8.276;2023-12-20T08:20:32;96995.16;;;3.96;100.00
57232;BME280;43488;46.934;8.276;2023-12-20T08:23:40;96994.81;;;3.99;100.00
57232;BME280;43488;46.934;8.276;2023-12-20T08:26:48;96994.81;;;3.99;100.00
57232;BME280;43488;46.934;8.276;2023-12-20T08:29:55;96988.47;;;4.02;100.00
57232;BME280;43488;46.934;8.276;2023-12-20T08:33:03;96995.19;;;4.05;100.00
57232;BME280;43488;46.934;8.276;2023-12-20T08:36:12;96982.16;;;4.05;100.00
57232;BME280;43488;46.934;8.276;2023-12-20T08:39:20;96984.78;;;4.05;100.00
57232;BME280;43488;46.934;8.276;2023-12-20T08:42:28;96991.09;;;4.02;100.00
57232;BME280;43488;46.934;8.276;2023-12-20T08:45:38;97001.88;;;4.07;100.00
57232;BME280;43488;46.934;8.276;2023-12-20T08:48:46;96996.50;;;4.09;100.00
57232;BME280;43488;46.934;8.276;2023-12-20T08:51:54;96996.34;;;4.10;100.00
57232;BME280;43488;46.934;8.276;2023-12-20T08:55:02;96991.66;;;4.14;100.00
57232;BME280;43488;46.934;8.276;2023-12-20T08:58:09;97004.69;;;4.14;100.00
57232;BME280;43488;46.934;8.276;2023-12-20T09:01:17;96995.25;;;4.13;100.00
57232;BME280;43488;46.934;8.276;2023-12-20T09:04:25;96994.44;;;4.20;100.00
57232;BME280;43488;46.934;8.276;2023-12-20T09:07:33;96985.19;;;4.26;100.00
57232;BME280;43488;46.934;8.276;2023-12-20T09:10:40;96996.28;;;4.28;100.00
57232;BME280;43488;46.934;8.276;2023-12-20T09:13:48;96990.91;;;4.29;100.00
57232;BME280;43488;46.934;8.276;2023-12-20T09:16:56;96988.16;;;4.31;100.00
57232;BME280;43488;46.934;8.276;2023-12-20T09:20:04;96977.75;;;4.31;100.00
57232;BME280;43488;46.934;8.276;2023-12-20T09:23:14;96986.22;;;4.33;100.00
57232;BME280;43488;46.934;8.276;2023-12-20T09:26:22;96991.09;;;4.36;100.00
57232;BME280;43488;46.934;8.276;2023-12-20T09:29:29;96983.00;;;4.39;100.00
57232;BME280;43488;46.934;8.276;2023-12-20T09:32:37;96981.69;;;4.43;100.00
57232;BME280;43488;46.934;8.276;2023-12-20T09:35:45;96976.97;;;4.47;100.00
57232;BME280;43488;46.934;8.276;2023-12-20T09:38:52;96981.19;;;4.48;100.00
57232;BME280;43488;46.934;8.276;2023-12-20T09:42:06;96983.19;;;4.54;100.00
57232;BME280;43488;46.934;8.276;2023-12-20T09:45:15;96979.16;;;4.60;100.00
57232;BME280;43488;46.934;8.276;2023-12-20T09:48:26;96982.44;;;4.70;100.00
57232;BME280;43488;46.934;8.276;2023-12-20T09:51:35;96974.63;;;4.78;100.00
57232;BME280;43488;46.934;8.276;2023-12-20T09:54:43;96977.41;;;4.84;100.00
57232;BME280;43488;46.934;8.276;2023-12-20T09:57:52;96964.53;;;4.91;100.00
57232;BME280;43488;46.934;8.276;2023-12-20T10:01:00;96971.56;;;4.91;100.00
57232;BME280;43488;46.934;8.276;2023-12-20T10:04:10;96971.09;;;4.95;100.00
57232;BME280;43488;46.934;8.276;2023-12-20T10:07:20;96961.47;;;5.04;100.00
57232;BME280;43488;46.934;8.276;2023-12-20T10:10:28;96965.88;;;5.11;100.00
57232;BME280;43488;46.934;8.276;2023-12-20T10:13:40;96957.41;;;5.18;100.00
57232;BME280;43488;46.934;8.276;2023-12-20T10:16:51;96957.06;;;5.29;100.00
57232;BME280;43488;46.934;8.276;2023-12-20T10:19:59;96962.81;;;5.49;100.00
57232;BME280;43488;46.934;8.276;2023-12-20T10:23:07;96947.25;;;5.63;100.00
57232;BME280;43488;46.934;8.276;2023-12-20T10:26:25;96937.59;;;5.80;100.00
57232;BME280;43488;46.934;8.276;2023-12-20T10:29:37;96929.94;;;5.87;100.00
57232;BME280;43488;46.934;8.276;2023-12-20T10:32:45;96928.28;;;5.94;100.00
57232;BME280;43488;46.934;8.276;2023-12-20T10:35:53;96932.34;;;6.05;100.00
57232;BME280;43488;46.934;8.276;2023-12-20T10:39:02;96927.25;;;6.11;100.00
57232;BME280;43488;46.934;8.276;2023-12-20T10:42:12;96913.47;;;6.25;100.00
57232;BME280;43488;46.934;8.276;2023-12-20T10:45:20;96899.53;;;6.41;100.00
57232;BME280;43488;46.934;8.276;2023-12-20T10:48:28;96909.19;;;6.41;100.00
57232;BME280;43488;46.934;8.276;2023-12-20T10:51:38;96889.69;;;6.43;100.00
57232;BME280;43488;46.934;8.276;2023-12-20T10:54:46;96890.72;;;7.11;100.00
57232;BME280;43488;46.934;8.276;2023-12-20T10:58:09;96886.72;;;7.00;100.00
57232;BME280;43488;46.934;8.276;2023-12-20T11:01:19;96892.88;;;6.84;100.00
57232;BME280;43488;46.934;8.276;2023-12-20T11:04:45;96877.13;;;6.70;100.00
57232;BME280;43488;46.934;8.276;2023-12-20T11:08:02;96867.75;;;6.52;100.00
57232;BME280;43488;46.934;8.276;2023-12-20T11:11:29;96866.13;;;6.51;100.00
57232;BME280;43488;46.934;8.276;2023-12-20T11:14:48;96856.94;;;6.55;100.00
57232;BME280;43488;46.934;8.276;2023-12-20T11:17:57;96853.38;;;6.48;100.00
57232;BME280;43488;46.934;8.276;2023-12-20T11:21:06;96858.91;;;6.53;100.00
57232;BME280;43488;46.934;8.276;2023-12-20T11:24:15;96863.69;;;6.73;100.00
57232;BME280;43488;46.934;8.276;2023-12-20T11:27:24;96846.13;;;6.81;100.00
57232;BME280;43488;46.934;8.276;2023-12-20T11:30:48;96843.81;;;6.87;100.00
57232;BME280;43488;46.934;8.276;2023-12-20T11:34:13;96848.91;;;6.80;100.00
57232;BME280;43488;46.934;8.276;2023-12-20T11:37:22;96855.59;;;6.82;100.00
57232;BME280;43488;46.934;8.276;2023-12-20T11:40:36;96847.28;;;6.79;100.00
57232;BME280;43488;46.934;8.276;2023-12-20T11:43:44;96842.97;;;6.63;100.00
57232;BME280;43488;46.934;8.276;2023-12-20T11:46:52;96846.47;;;6.55;100.00
57232;BME280;43488;46.934;8.276;2023-12-20T11:50:01;96843.25;;;6.45;100.00
57232;BME280;43488;46.934;8.276;2023-12-20T11:53:11;96842.09;;;6.48;100.00
57232;BME280;43488;46.934;8.276;2023-12-20T11:56:18;96838.47;;;6.49;100.00
57232;BME280;43488;46.934;8.276;2023-12-20T11:59:26;96835.06;;;6.48;100.00
57232;BME280;43488;46.934;8.276;2023-12-20T12:02:34;96832.56;;;6.55;100.00
57232;BME280;43488;46.934;8.276;2023-12-20T12:05:42;96833.69;;;6.61;100.00
57232;BME280;43488;46.934;8.276;2023-12-20T12:08:49;96841.47;;;6.69;100.00
57232;BME280;43488;46.934;8.276;2023-12-20T12:11:58;96841.47;;;6.69;100.00
57232;BME280;43488;46.934;8.276;2023-12-20T12:15:06;96839.72;;;6.61;100.00
57232;BME280;43488;46.934;8.276;2023-12-20T12:18:18;96832.22;;;6.58;100.00
57232;BME280;43488;46.934;8.276;2023-12-20T12:21:26;96832.97;;;6.67;100.00
57232;BME280;43488;46.934;8.276;2023-12-20T12:24:34;96833.09;;;6.73;100.00
57232;BME280;43488;46.934;8.276;2023-12-20T12:27:42;96831.22;;;6.82;100.00
57232;BME280;43488;46.934;8.276;2023-12-20T12:31:00;96818.09;;;6.90;100.00
57232;BME280;43488;46.934;8.276;2023-12-20T12:34:08;96812.16;;;6.96;100.00
57232;BME280;43488;46.934;8.276;2023-12-20T12:37:16;96812.03;;;7.27;100.00
57232;BME280;43488;46.934;8.276;2023-12-20T12:40:24;96820.25;;;7.54;100.00
57232;BME280;43488;46.934;8.276;2023-12-20T12:43:33;96821.72;;;7.41;100.00
57232;BME280;43488;46.934;8.276;2023-12-20T12:46:41;96830.91;;;7.37;100.00
57232;BME280;43488;46.934;8.276;2023-12-20T12:49:51;96823.94;;;7.15;100.00
57232;BME280;43488;46.934;8.276;2023-12-20T12:53:00;96824.06;;;6.99;100.00
57232;BME280;43488;46.934;8.276;2023-12-20T12:56:08;96822.88;;;6.87;100.00
57232;BME280;43488;46.934;8.276;2023-12-20T12:59:16;96823.94;;;6.77;100.00
57232;BME280;43488;46.934;8.276;2023-12-20T13:02:24;96827.22;;;6.71;100.00
57232;BME280;43488;46.934;8.276;2023-12-20T13:05:31;96834.63;;;6.68;100.00
57232;BME280;43488;46.934;8.276;2023-12-20T13:08:39;96830.22;;;6.68;100.00
57232;BME280;43488;46.934;8.276;2023-12-20T13:11:47;96831.59;;;6.79;100.00
57232;BME280;43488;46.934;8.276;2023-12-20T13:14:54;96820.88;;;6.89;100.00
57232;BME280;43488;46.934;8.276;2023-12-20T13:18:02;96835.03;;;6.79;100.00
57232;BME280;43488;46.934;8.276;2023-12-20T13:21:12;96835.34;;;6.76;100.00
57232;BME280;43488;46.934;8.276;2023-12-20T13:24:19;96837.88;;;6.70;100.00
57232;BME280;43488;46.934;8.276;2023-12-20T13:27:27;96841.06;;;6.57;100.00
57232;BME280;43488;46.934;8.276;2023-12-20T13:30:35;96839.47;;;6.48;100.00
57232;BME280;43488;46.934;8.276;2023-12-20T13:33:43;96839.84;;;6.45;100.00
57232;BME280;43488;46.934;8.276;2023-12-20T13:36:50;96841.00;;;6.42;100.00
57232;BME280;43488;46.934;8.276;2023-12-20T13:39:58;96844.06;;;6.46;100.00
57232;BME280;43488;46.934;8.276;2023-12-20T13:43:06;96844.44;;;6.43;100.00
57232;BME280;43488;46.934;8.276;2023-12-20T13:46:14;96841.81;;;6.43;100.00
57232;BME280;43488;46.934;8.276;2023-12-20T13:49:21;96861.09;;;6.42;100.00
57232;BME280;43488;46.934;8.276;2023-12-20T13:52:32;96856.19;;;6.39;100.00
57232;BME280;43488;46.934;8.276;2023-12-20T13:55:40;96866.84;;;6.37;100.00
57232;BME280;43488;46.934;8.276;2023-12-20T13:58:48;96867.38;;;6.33;100.00
57232;BME280;43488;46.934;8.276;2023-12-20T14:01:56;96869.31;;;6.31;100.00
57232;BME280;43488;46.934;8.276;2023-12-20T14:05:05;96871.28;;;6.28;100.00
57232;BME280;43488;46.934;8.276;2023-12-20T14:08:13;96875.25;;;6.24;100.00
57232;BME280;43488;46.934;8.276;2023-12-20T14:11:21;96873.84;;;6.14;100.00
57232;BME280;43488;46.934;8.276;2023-12-20T14:14:29;96887.41;;;6.09;100.00
57232;BME280;43488;46.934;8.276;2023-12-20T14:17:41;96877.47;;;6.05;100.00
57232;BME280;43488;46.934;8.276;2023-12-20T14:20:51;96881.75;;;5.97;100.00
57232;BME280;43488;46.934;8.276;2023-12-20T14:24:00;96897.91;;;5.93;100.00
57232;BME280;43488;46.934;8.276;2023-12-20T14:27:07;96890.38;;;5.98;100.00
57232;BME280;43488;46.934;8.276;2023-12-20T14:30:16;96888.91;;;6.04;100.00
57232;BME280;43488;46.934;8.276;2023-12-20T14:33:24;96897.22;;;6.07;100.00
57232;BME280;43488;46.934;8.276;2023-12-20T14:36:33;96903.25;;;6.08;100.00
57232;BME280;43488;46.934;8.276;2023-12-20T14:39:41;96899.84;;;6.07;100.00
57232;BME280;43488;46.934;8.276;2023-12-20T14:42:49;96899.38;;;6.04;100.00
57232;BME280;43488;46.934;8.276;2023-12-20T14:45:57;96896.25;;;6.00;100.00
57232;BME280;43488;46.934;8.276;2023-12-20T14:49:05;96906.06;;;5.90;100.00
57232;BME280;43488;46.934;8.276;2023-12-20T14:52:13;96911.13;;;5.83;100.00
57232;BME280;43488;46.934;8.276;2023-12-20T14:55:21;96912.97;;;5.66;100.00
57232;BME280;43488;46.934;8.276;2023-12-20T14:58:29;96916.38;;;5.75;100.00
57232;BME280;43488;46.934;8.276;2023-12-20T15:01:37;96904.19;;;5.67;100.00
57232;BME280;43488;46.934;8.276;2023-12-20T15:04:44;96915.28;;;5.61;100.00
57232;BME280;43488;46.934;8.276;2023-12-20T15:07:52;96909.09;;;5.54;100.00
57232;BME280;43488;46.934;8.276;2023-12-20T15:11:00;96915.81;;;5.49;100.00
57232;BME280;43488;46.934;8.276;2023-12-20T15:14:08;96915.13;;;5.55;100.00
57232;BME280;43488;46.934;8.276;2023-12-20T15:17:16;96908.44;;;5.52;100.00
57232;BME280;43488;46.934;8.276;2023-12-20T15:20:24;96911.06;;;5.52;100.00
57232;BME280;43488;46.934;8.276;2023-12-20T15:23:31;96916.44;;;5.51;100.00
57232;BME280;43488;46.934;8.276;2023-12-20T15:26:39;96915.00;;;5.40;100.00
57232;BME280;43488;46.934;8.276;2023-12-20T15:29:47;96907.34;;;5.22;100.00
57232;BME280;43488;46.934;8.276;2023-12-20T15:32:57;96912.38;;;5.16;100.00
57232;BME280;43488;46.934;8.276;2023-12-20T15:36:06;96924.91;;;5.12;100.00
57232;BME280;43488;46.934;8.276;2023-12-20T15:39:13;96925.75;;;5.04;100.00
57232;BME280;43488;46.934;8.276;2023-12-20T15:42:21;96923.47;;;5.01;100.00
57232;BME280;43488;46.934;8.276;2023-12-20T15:45:29;96913.03;;;5.01;100.00
57232;BME280;43488;46.934;8.276;2023-12-20T15:48:37;96913.19;;;4.92;100.00
57232;BME280;43488;46.934;8.276;2023-12-20T15:51:45;96911.38;;;5.00;100.00
57232;BME280;43488;46.934;8.276;2023-12-20T15:54:52;96917.41;;;5.01;100.00
57232;BME280;43488;46.934;8.276;2023-12-20T15:58:00;96919.53;;;4.89;100.00
57232;BME280;43488;46.934;8.276;2023-12-20T16:01:08;96926.06;;;4.85;100.00
57232;BME280;43488;46.934;8.276;2023-12-20T16:04:16;96931.91;;;4.79;100.00
57232;BME280;43488;46.934;8.276;2023-12-20T16:07:24;96936.97;;;4.80;100.00
57232;BME280;43488;46.934;8.276;2023-12-20T16:10:31;96927.34;;;4.73;100.00
57232;BME280;43488;46.934;8.276;2023-12-20T16:13:39;96934.19;;;4.74;100.00
57232;BME280;43488;46.934;8.276;2023-12-20T16:16:48;96943.97;;;4.72;100.00
57232;BME280;43488;46.934;8.276;2023-12-20T16:19:56;96945.41;;;4.66;100.00
57232;BME280;43488;46.934;8.276;2023-12-20T16:23:04;96951.94;;;4.70;100.00
57232;BME280;43488;46.934;8.276;2023-12-20T16:26:12;96951.78;;;4.72;100.00
57232;BME280;43488;46.934;8.276;2023-12-20T16:29:20;96948.84;;;4.75;100.00
57232;BME280;43488;46.934;8.276;2023-12-20T16:32:28;96943.16;;;4.71;100.00
57232;BME280;43488;46.934;8.276;2023-12-20T16:35:36;96952.28;;;4.67;100.00
57232;BME280;43488;46.934;8.276;2023-12-20T16:38:44;96959.94;;;4.69;100.00